PATL/TLJ METAR and TAF weather

Enter ICAO airport designator
Station Type Date Time Source
PATL METAR 2022/09/26 09:55 UTC NOAA

PATL 260955Z AUTO 00000KT 10SM BKN060 04/03 A2969 RMK AO2 SLP063 T00360031 TSNO $


Station Type Date Time Source
PATL Decoded METAR 2022/09/26 09:55 UTC NOAA

Takotna, Tatalina LRRS Airport, AK, United States (PATL) 62-54N 155-59W
Sep 26, 2022 - 05:55 AM EDT / 2022.09.26 0955 UTC
Wind: Calm:0
Visibility: 10 mile(s):0
Sky conditions: mostly cloudy
Temperature: 38.5 F (3.6 C)
Dew Point: 37.6 F (3.1 C)
Relative Humidity: 96%
Pressure (altimeter): 29.69 in. Hg (1005 hPa)
ob: PATL 260955Z AUTO 00000KT 10SM BKN060 04/03 A2969 RMK AO2 SLP063 T00360031 TSNO
cycle: 10

Station Type Date Time Source
PATL TAF 2012/01/12 14:06 UTC NOAA

TAF PATL 1214/1320 VRB06KT 9999 FEW050 SCT110 QNH2998INS TM26/1300Z TM32/1315Z

Example: see airport list